Terminal Aerodrome Forecast
Issued by NWS

Home | Current Version | Previous Version | Text Only | Print | Product List | Glossary On
Versions: 1 2 3 4 5 6 7 8 9 10 11 12 13 14 15 16 17
000
FTUS41 KBTV 281135
TAFMPV
TAF
KMPV 281135Z 2812/2912 VRB03KT P6SM VCSH BKN030
     FM281400 24006KT P6SM BKN030
     FM281800 29010KT P6SM VCSH BKN040
     FM290000 24005KT P6SM SCT040=

USA.gov is the U.S. government's official web portal to all federal, state and local government web resources and services.